sensor_id;sensor_type;location;lat;lon;timestamp;P1;durP1;ratioP1;P2;durP2;ratioP2
6580;SDS011;3324;50.796;7.228;2023-07-13T00:00:34;10.20;;;9.70;;
6580;SDS011;3324;50.796;7.228;2023-07-13T00:03:01;10.40;;;9.90;;
6580;SDS011;3324;50.796;7.228;2023-07-13T00:05:27;9.20;;;9.00;;
6580;SDS011;3324;50.796;7.228;2023-07-13T00:07:52;9.50;;;9.20;;
6580;SDS011;3324;50.796;7.228;2023-07-13T00:10:19;9.50;;;9.20;;
6580;SDS011;3324;50.796;7.228;2023-07-13T00:12:46;9.20;;;9.00;;
6580;SDS011;3324;50.796;7.228;2023-07-13T00:15:19;9.20;;;9.00;;
6580;SDS011;3324;50.796;7.228;2023-07-13T00:17:51;9.50;;;9.20;;
6580;SDS011;3324;50.796;7.228;2023-07-13T00:20:20;10.00;;;9.50;;
6580;SDS011;3324;50.796;7.228;2023-07-13T00:22:48;9.30;;;9.10;;
6580;SDS011;3324;50.796;7.228;2023-07-13T00:25:14;9.20;;;9.00;;
6580;SDS011;3324;50.796;7.228;2023-07-13T00:27:41;9.20;;;9.00;;
6580;SDS011;3324;50.796;7.228;2023-07-13T00:30:08;9.00;;;8.80;;
6580;SDS011;3324;50.796;7.228;2023-07-13T00:32:35;9.70;;;9.30;;
6580;SDS011;3324;50.796;7.228;2023-07-13T00:35:03;8.93;;;8.73;;
6580;SDS011;3324;50.796;7.228;2023-07-13T00:37:30;8.60;;;8.40;;
6580;SDS011;3324;50.796;7.228;2023-07-13T00:39:56;8.50;;;8.30;;
6580;SDS011;3324;50.796;7.228;2023-07-13T00:42:22;8.30;;;8.20;;
6580;SDS011;3324;50.796;7.228;2023-07-13T00:45:02;8.50;;;8.30;;
6580;SDS011;3324;50.796;7.228;2023-07-13T00:47:51;8.40;;;8.30;;
6580;SDS011;3324;50.796;7.228;2023-07-13T00:50:16;8.60;;;8.40;;
6580;SDS011;3324;50.796;7.228;2023-07-13T00:52:45;8.25;;;8.10;;
6580;SDS011;3324;50.796;7.228;2023-07-13T00:55:13;8.10;;;8.00;;
6580;SDS011;3324;50.796;7.228;2023-07-13T00:57:40;8.30;;;8.20;;
6580;SDS011;3324;50.796;7.228;2023-07-13T01:00:07;8.10;;;8.00;;
6580;SDS011;3324;50.796;7.228;2023-07-13T01:02:34;8.30;;;8.20;;
6580;SDS011;3324;50.796;7.228;2023-07-13T01:05:07;7.60;;;7.50;;
6580;SDS011;3324;50.796;7.228;2023-07-13T01:07:39;7.50;;;7.40;;
6580;SDS011;3324;50.796;7.228;2023-07-13T01:10:06;8.70;;;8.30;;
6580;SDS011;3324;50.796;7.228;2023-07-13T01:12:32;8.70;;;8.30;;
6580;SDS011;3324;50.796;7.228;2023-07-13T01:14:58;7.30;;;7.20;;
6580;SDS011;3324;50.796;7.228;2023-07-13T01:17:25;7.93;;;7.63;;
6580;SDS011;3324;50.796;7.228;2023-07-13T01:19:52;9.00;;;8.60;;
6580;SDS011;3324;50.796;7.228;2023-07-13T01:22:18;8.00;;;7.90;;
6580;SDS011;3324;50.796;7.228;2023-07-13T01:24:45;6.90;;;6.80;;
6580;SDS011;3324;50.796;7.228;2023-07-13T01:27:13;7.70;;;7.60;;
6580;SDS011;3324;50.796;7.228;2023-07-13T01:29:44;8.70;;;8.40;;
6580;SDS011;3324;50.796;7.228;2023-07-13T01:32:14;7.00;;;6.90;;
6580;SDS011;3324;50.796;7.228;2023-07-13T01:34:42;8.50;;;8.30;;
6580;SDS011;3324;50.796;7.228;2023-07-13T01:37:09;8.50;;;8.30;;
6580;SDS011;3324;50.796;7.228;2023-07-13T01:39:36;8.95;;;8.55;;
6580;SDS011;3324;50.796;7.228;2023-07-13T01:42:02;9.10;;;8.70;;
6580;SDS011;3324;50.796;7.228;2023-07-13T01:44:28;8.20;;;8.10;;
6580;SDS011;3324;50.796;7.228;2023-07-13T01:46:54;8.10;;;8.00;;
6580;SDS011;3324;50.796;7.228;2023-07-13T01:49:19;8.10;;;8.00;;
6580;SDS011;3324;50.796;7.228;2023-07-13T01:51:45;8.40;;;8.10;;
6580;SDS011;3324;50.796;7.228;2023-07-13T01:54:10;7.50;;;7.40;;
6580;SDS011;3324;50.796;7.228;2023-07-13T01:56:36;7.40;;;7.30;;
6580;SDS011;3324;50.796;7.228;2023-07-13T01:59:02;8.18;;;7.88;;
6580;SDS011;3324;50.796;7.228;2023-07-13T02:01:27;7.30;;;7.20;;
6580;SDS011;3324;50.796;7.228;2023-07-13T02:03:53;7.30;;;7.20;;
6580;SDS011;3324;50.796;7.228;2023-07-13T02:06:18;8.10;;;7.80;;
6580;SDS011;3324;50.796;7.228;2023-07-13T02:08:44;6.90;;;6.80;;
6580;SDS011;3324;50.796;7.228;2023-07-13T02:11:10;6.50;;;6.40;;
6580;SDS011;3324;50.796;7.228;2023-07-13T02:13:35;7.30;;;7.20;;
6580;SDS011;3324;50.796;7.228;2023-07-13T02:16:01;8.50;;;8.20;;
6580;SDS011;3324;50.796;7.228;2023-07-13T02:18:27;7.60;;;7.50;;
6580;SDS011;3324;50.796;7.228;2023-07-13T02:20:52;7.70;;;7.60;;
6580;SDS011;3324;50.796;7.228;2023-07-13T02:23:18;8.40;;;8.10;;
6580;SDS011;3324;50.796;7.228;2023-07-13T02:25:45;7.45;;;7.35;;
6580;SDS011;3324;50.796;7.228;2023-07-13T02:28:11;8.20;;;7.90;;
6580;SDS011;3324;50.796;7.228;2023-07-13T02:30:37;7.50;;;7.40;;
6580;SDS011;3324;50.796;7.228;2023-07-13T02:33:03;7.50;;;7.40;;
6580;SDS011;3324;50.796;7.228;2023-07-13T02:35:29;7.50;;;7.40;;
6580;SDS011;3324;50.796;7.228;2023-07-13T02:37:55;7.50;;;7.40;;
6580;SDS011;3324;50.796;7.228;2023-07-13T02:40:21;7.50;;;7.40;;
6580;SDS011;3324;50.796;7.228;2023-07-13T02:42:47;8.60;;;8.30;;
6580;SDS011;3324;50.796;7.228;2023-07-13T02:45:12;7.50;;;7.40;;
6580;SDS011;3324;50.796;7.228;2023-07-13T02:47:40;7.50;;;7.40;;
6580;SDS011;3324;50.796;7.228;2023-07-13T02:50:06;8.15;;;7.85;;
6580;SDS011;3324;50.796;7.228;2023-07-13T02:52:32;7.70;;;7.60;;
6580;SDS011;3324;50.796;7.228;2023-07-13T02:54:58;7.50;;;7.40;;
6580;SDS011;3324;50.796;7.228;2023-07-13T02:57:23;7.40;;;7.30;;
6580;SDS011;3324;50.796;7.228;2023-07-13T02:59:49;8.40;;;8.10;;
6580;SDS011;3324;50.796;7.228;2023-07-13T03:02:15;7.50;;;7.40;;
6580;SDS011;3324;50.796;7.228;2023-07-13T03:04:40;7.60;;;7.50;;
6580;SDS011;3324;50.796;7.228;2023-07-13T03:07:06;7.30;;;7.20;;
6580;SDS011;3324;50.796;7.228;2023-07-13T03:09:33;8.40;;;8.10;;
6580;SDS011;3324;50.796;7.228;2023-07-13T03:11:59;8.97;;;8.57;;
6580;SDS011;3324;50.796;7.228;2023-07-13T03:14:25;9.10;;;8.70;;
6580;SDS011;3324;50.796;7.228;2023-07-13T03:16:51;8.00;;;7.90;;
6580;SDS011;3324;50.796;7.228;2023-07-13T03:19:17;7.80;;;7.70;;
6580;SDS011;3324;50.796;7.228;2023-07-13T03:21:43;7.40;;;7.30;;
6580;SDS011;3324;50.796;7.228;2023-07-13T03:24:09;7.70;;;7.60;;
6580;SDS011;3324;50.796;7.228;2023-07-13T03:26:35;8.90;;;8.50;;
6580;SDS011;3324;50.796;7.228;2023-07-13T03:29:00;7.55;;;7.45;;
6580;SDS011;3324;50.796;7.228;2023-07-13T03:31:27;7.60;;;7.50;;
6580;SDS011;3324;50.796;7.228;2023-07-13T03:33:54;7.80;;;7.50;;
6580;SDS011;3324;50.796;7.228;2023-07-13T03:36:22;6.97;;;6.67;;
6580;SDS011;3324;50.796;7.228;2023-07-13T03:38:50;4.95;;;4.85;;
6580;SDS011;3324;50.796;7.228;2023-07-13T03:41:18;3.30;;;3.30;;
6580;SDS011;3324;50.796;7.228;2023-07-13T03:43:44;2.70;;;2.70;;
6580;SDS011;3324;50.796;7.228;2023-07-13T03:46:10;3.25;;;3.25;;
6580;SDS011;3324;50.796;7.228;2023-07-13T03:48:36;6.55;;;6.25;;
6580;SDS011;3324;50.796;7.228;2023-07-13T03:51:02;5.40;;;5.30;;
6580;SDS011;3324;50.796;7.228;2023-07-13T03:53:27;5.75;;;5.65;;
6580;SDS011;3324;50.796;7.228;2023-07-13T03:55:53;1.47;;;1.47;;
6580;SDS011;3324;50.796;7.228;2023-07-13T03:58:26;4.80;;;4.50;;
6580;SDS011;3324;50.796;7.228;2023-07-13T04:00:54;5.30;;;5.20;;
6580;SDS011;3324;50.796;7.228;2023-07-13T04:03:20;5.67;;;5.57;;
6580;SDS011;3324;50.796;7.228;2023-07-13T04:05:46;6.30;;;6.20;;
6580;SDS011;3324;50.796;7.228;2023-07-13T04:08:12;6.40;;;6.30;;
6580;SDS011;3324;50.796;7.228;2023-07-13T04:10:38;7.30;;;7.00;;
6580;SDS011;3324;50.796;7.228;2023-07-13T04:13:03;6.80;;;6.50;;
6580;SDS011;3324;50.796;7.228;2023-07-13T04:15:30;6.20;;;6.10;;
6580;SDS011;3324;50.796;7.228;2023-07-13T04:17:56;7.00;;;6.90;;
6580;SDS011;3324;50.796;7.228;2023-07-13T04:20:22;6.90;;;6.80;;
6580;SDS011;3324;50.796;7.228;2023-07-13T04:22:49;7.30;;;7.20;;
6580;SDS011;3324;50.796;7.228;2023-07-13T04:25:14;7.85;;;7.75;;
6580;SDS011;3324;50.796;7.228;2023-07-13T04:27:40;6.60;;;6.50;;
6580;SDS011;3324;50.796;7.228;2023-07-13T04:30:06;8.20;;;7.90;;
6580;SDS011;3324;50.796;7.228;2023-07-13T04:32:32;6.18;;;6.07;;
6580;SDS011;3324;50.796;7.228;2023-07-13T04:34:58;7.50;;;7.40;;
6580;SDS011;3324;50.796;7.228;2023-07-13T04:37:25;7.40;;;7.30;;
6580;SDS011;3324;50.796;7.228;2023-07-13T04:39:51;7.65;;;7.55;;
6580;SDS011;3324;50.796;7.228;2023-07-13T04:42:17;7.80;;;7.70;;
6580;SDS011;3324;50.796;7.228;2023-07-13T04:44:49;8.00;;;7.90;;
6580;SDS011;3324;50.796;7.228;2023-07-13T04:47:16;8.10;;;8.00;;
6580;SDS011;3324;50.796;7.228;2023-07-13T04:49:42;8.60;;;8.40;;
6580;SDS011;3324;50.796;7.228;2023-07-13T04:52:09;8.50;;;8.30;;
6580;SDS011;3324;50.796;7.228;2023-07-13T04:54:34;9.20;;;8.80;;
6580;SDS011;3324;50.796;7.228;2023-07-13T04:57:00;8.80;;;8.60;;
6580;SDS011;3324;50.796;7.228;2023-07-13T04:59:26;8.50;;;8.30;;
6580;SDS011;3324;50.796;7.228;2023-07-13T05:01:52;8.20;;;8.10;;
6580;SDS011;3324;50.796;7.228;2023-07-13T05:04:18;9.40;;;8.90;;
6580;SDS011;3324;50.796;7.228;2023-07-13T05:06:44;9.60;;;9.20;;
6580;SDS011;3324;50.796;7.228;2023-07-13T05:09:09;8.80;;;8.60;;
6580;SDS011;3324;50.796;7.228;2023-07-13T05:11:35;8.70;;;8.50;;
6580;SDS011;3324;50.796;7.228;2023-07-13T05:14:00;9.63;;;9.23;;
6580;SDS011;3324;50.796;7.228;2023-07-13T05:16:26;8.70;;;8.50;;
6580;SDS011;3324;50.796;7.228;2023-07-13T05:18:52;8.70;;;8.50;;
6580;SDS011;3324;50.796;7.228;2023-07-13T05:21:18;9.00;;;8.80;;
6580;SDS011;3324;50.796;7.228;2023-07-13T05:23:44;9.00;;;8.80;;
6580;SDS011;3324;50.796;7.228;2023-07-13T05:26:10;9.80;;;9.40;;
6580;SDS011;3324;50.796;7.228;2023-07-13T05:28:37;8.40;;;8.20;;
6580;SDS011;3324;50.796;7.228;2023-07-13T05:31:03;8.00;;;7.90;;
6580;SDS011;3324;50.796;7.228;2023-07-13T05:33:29;6.75;;;6.65;;
6580;SDS011;3324;50.796;7.228;2023-07-13T05:35:55;7.13;;;7.03;;
6580;SDS011;3324;50.796;7.228;2023-07-13T05:38:21;7.60;;;7.50;;
6580;SDS011;3324;50.796;7.228;2023-07-13T05:40:47;8.40;;;8.20;;
6580;SDS011;3324;50.796;7.228;2023-07-13T05:43:13;8.50;;;8.10;;
6580;SDS011;3324;50.796;7.228;2023-07-13T05:45:39;7.82;;;7.53;;
6580;SDS011;3324;50.796;7.228;2023-07-13T05:48:05;6.30;;;6.20;;
6580;SDS011;3324;50.796;7.228;2023-07-13T05:50:31;7.90;;;7.80;;
6580;SDS011;3324;50.796;7.228;2023-07-13T05:52:57;8.30;;;8.20;;
6580;SDS011;3324;50.796;7.228;2023-07-13T05:55:23;9.55;;;9.15;;
6580;SDS011;3324;50.796;7.228;2023-07-13T05:57:48;9.65;;;9.25;;
6580;SDS011;3324;50.796;7.228;2023-07-13T06:00:14;8.00;;;7.90;;
6580;SDS011;3324;50.796;7.228;2023-07-13T06:02:42;8.20;;;8.10;;
6580;SDS011;3324;50.796;7.228;2023-07-13T06:05:08;8.80;;;8.60;;
6580;SDS011;3324;50.796;7.228;2023-07-13T06:07:34;7.80;;;7.70;;
6580;SDS011;3324;50.796;7.228;2023-07-13T06:09:59;7.70;;;7.60;;
6580;SDS011;3324;50.796;7.228;2023-07-13T06:12:25;9.40;;;9.00;;
6580;SDS011;3324;50.796;7.228;2023-07-13T06:14:51;9.20;;;8.90;;
6580;SDS011;3324;50.796;7.228;2023-07-13T06:17:17;8.20;;;8.10;;
6580;SDS011;3324;50.796;7.228;2023-07-13T06:19:43;5.60;;;5.50;;
6580;SDS011;3324;50.796;7.228;2023-07-13T06:22:08;7.10;;;6.80;;
6580;SDS011;3324;50.796;7.228;2023-07-13T06:24:34;7.40;;;7.30;;
6580;SDS011;3324;50.796;7.228;2023-07-13T06:26:59;7.70;;;7.60;;
6580;SDS011;3324;50.796;7.228;2023-07-13T06:29:25;8.47;;;8.27;;
6580;SDS011;3324;50.796;7.228;2023-07-13T06:31:51;8.80;;;8.50;;
6580;SDS011;3324;50.796;7.228;2023-07-13T06:34:16;8.80;;;8.60;;
6580;SDS011;3324;50.796;7.228;2023-07-13T06:36:42;9.25;;;9.05;;
6580;SDS011;3324;50.796;7.228;2023-07-13T06:39:08;11.10;;;10.20;;
6580;SDS011;3324;50.796;7.228;2023-07-13T06:41:33;9.70;;;9.40;;
6580;SDS011;3324;50.796;7.228;2023-07-13T06:43:59;9.90;;;9.60;;
6580;SDS011;3324;50.796;7.228;2023-07-13T06:46:25;10.90;;;10.30;;
6580;SDS011;3324;50.796;7.228;2023-07-13T06:48:50;9.20;;;9.00;;
6580;SDS011;3324;50.796;7.228;2023-07-13T06:51:16;9.90;;;9.60;;
6580;SDS011;3324;50.796;7.228;2023-07-13T06:53:42;9.20;;;9.00;;
6580;SDS011;3324;50.796;7.228;2023-07-13T06:56:09;9.60;;;9.20;;
6580;SDS011;3324;50.796;7.228;2023-07-13T06:58:35;9.30;;;9.10;;
6580;SDS011;3324;50.796;7.228;2023-07-13T07:01:01;9.80;;;9.30;;
6580;SDS011;3324;50.796;7.228;2023-07-13T07:03:27;9.80;;;9.40;;
6580;SDS011;3324;50.796;7.228;2023-07-13T07:05:53;8.70;;;8.50;;
6580;SDS011;3324;50.796;7.228;2023-07-13T07:08:18;8.80;;;8.60;;
6580;SDS011;3324;50.796;7.228;2023-07-13T07:10:44;10.40;;;9.90;;
6580;SDS011;3324;50.796;7.228;2023-07-13T07:13:10;10.20;;;9.90;;
6580;SDS011;3324;50.796;7.228;2023-07-13T07:15:36;10.30;;;9.90;;
6580;SDS011;3324;50.796;7.228;2023-07-13T07:18:02;10.00;;;9.70;;
6580;SDS011;3324;50.796;7.228;2023-07-13T07:20:28;10.90;;;10.30;;
6580;SDS011;3324;50.796;7.228;2023-07-13T07:22:55;10.50;;;10.10;;
6580;SDS011;3324;50.796;7.228;2023-07-13T07:25:21;10.37;;;9.97;;
6580;SDS011;3324;50.796;7.228;2023-07-13T07:30:12;10.60;;;10.20;;
6580;SDS011;3324;50.796;7.228;2023-07-13T07:32:38;10.35;;;9.95;;
6580;SDS011;3324;50.796;7.228;2023-07-13T07:35:04;11.60;;;10.90;;
6580;SDS011;3324;50.796;7.228;2023-07-13T07:37:30;10.40;;;10.00;;
6580;SDS011;3324;50.796;7.228;2023-07-13T07:39:55;9.90;;;9.60;;
6580;SDS011;3324;50.796;7.228;2023-07-13T07:42:21;11.00;;;10.60;;
6580;SDS011;3324;50.796;7.228;2023-07-13T07:44:46;9.40;;;9.10;;
6580;SDS011;3324;50.796;7.228;2023-07-13T07:47:12;9.80;;;9.50;;
6580;SDS011;3324;50.796;7.228;2023-07-13T07:49:38;11.10;;;10.50;;
6580;SDS011;3324;50.796;7.228;2023-07-13T07:52:03;10.10;;;9.70;;
6580;SDS011;3324;50.796;7.228;2023-07-13T07:54:29;10.60;;;10.20;;
6580;SDS011;3324;50.796;7.228;2023-07-13T07:56:55;10.10;;;9.80;;
6580;SDS011;3324;50.796;7.228;2023-07-13T07:59:21;11.20;;;10.60;;
6580;SDS011;3324;50.796;7.228;2023-07-13T08:01:46;10.60;;;10.20;;
6580;SDS011;3324;50.796;7.228;2023-07-13T08:04:15;10.80;;;10.40;;
6580;SDS011;3324;50.796;7.228;2023-07-13T08:06:41;11.68;;;10.98;;
6580;SDS011;3324;50.796;7.228;2023-07-13T08:09:07;11.10;;;10.60;;
6580;SDS011;3324;50.796;7.228;2023-07-13T08:11:33;10.90;;;10.40;;
6580;SDS011;3324;50.796;7.228;2023-07-13T08:13:59;10.50;;;10.10;;
6580;SDS011;3324;50.796;7.228;2023-07-13T08:16:25;12.00;;;11.30;;
6580;SDS011;3324;50.796;7.228;2023-07-13T08:18:51;11.50;;;10.80;;
6580;SDS011;3324;50.796;7.228;2023-07-13T08:21:16;10.90;;;10.40;;
6580;SDS011;3324;50.796;7.228;2023-07-13T08:23:44;11.90;;;11.20;;
6580;SDS011;3324;50.796;7.228;2023-07-13T08:26:10;12.40;;;11.60;;
6580;SDS011;3324;50.796;7.228;2023-07-13T08:28:36;11.10;;;10.60;;
6580;SDS011;3324;50.796;7.228;2023-07-13T08:31:05;12.55;;;11.65;;
6580;SDS011;3324;50.796;7.228;2023-07-13T08:33:35;11.80;;;11.20;;
6580;SDS011;3324;50.796;7.228;2023-07-13T08:36:01;11.80;;;11.20;;
6580;SDS011;3324;50.796;7.228;2023-07-13T08:38:27;11.60;;;10.90;;
6580;SDS011;3324;50.796;7.228;2023-07-13T08:40:53;10.40;;;10.00;;
6580;SDS011;3324;50.796;7.228;2023-07-13T08:43:33;12.55;;;11.75;;
6580;SDS011;3324;50.796;7.228;2023-07-13T08:46:12;11.30;;;10.80;;
6580;SDS011;3324;50.796;7.228;2023-07-13T08:48:58;11.20;;;10.70;;
6580;SDS011;3324;50.796;7.228;2023-07-13T08:51:45;11.30;;;10.80;;
6580;SDS011;3324;50.796;7.228;2023-07-13T08:57:17;12.45;;;11.75;;
6580;SDS011;3324;50.796;7.228;2023-07-13T08:59:45;13.40;;;12.50;;
6580;SDS011;3324;50.796;7.228;2023-07-13T09:04:59;12.10;;;11.50;;
6580;SDS011;3324;50.796;7.228;2023-07-13T09:07:35;12.50;;;11.80;;
6580;SDS011;3324;50.796;7.228;2023-07-13T09:10:18;12.90;;;12.20;;
6580;SDS011;3324;50.796;7.228;2023-07-13T09:15:23;13.30;;;12.50;;
6580;SDS011;3324;50.796;7.228;2023-07-13T09:18:07;13.50;;;12.60;;
6580;SDS011;3324;50.796;7.228;2023-07-13T09:20:41;12.90;;;12.20;;
6580;SDS011;3324;50.796;7.228;2023-07-13T09:23:16;13.50;;;12.70;;
6580;SDS011;3324;50.796;7.228;2023-07-13T09:25:49;13.10;;;12.40;;
6580;SDS011;3324;50.796;7.228;2023-07-13T09:28:28;13.75;;;12.95;;
6580;SDS011;3324;50.796;7.228;2023-07-13T09:31:03;13.23;;;12.53;;
6580;SDS011;3324;50.796;7.228;2023-07-13T09:33:32;13.10;;;12.20;;
6580;SDS011;3324;50.796;7.228;2023-07-13T09:36:00;13.00;;;12.30;;
6580;SDS011;3324;50.796;7.228;2023-07-13T09:38:27;13.00;;;12.30;;
6580;SDS011;3324;50.796;7.228;2023-07-13T09:44:07;14.90;;;13.70;;
6580;SDS011;3324;50.796;7.228;2023-07-13T09:46:34;13.30;;;12.50;;
6580;SDS011;3324;50.796;7.228;2023-07-13T09:49:00;14.47;;;13.47;;
6580;SDS011;3324;50.796;7.228;2023-07-13T09:51:25;13.60;;;12.80;;
6580;SDS011;3324;50.796;7.228;2023-07-13T09:53:51;15.10;;;14.10;;
6580;SDS011;3324;50.796;7.228;2023-07-13T09:56:20;15.60;;;14.40;;
6580;SDS011;3324;50.796;7.228;2023-07-13T09:58:48;15.40;;;14.40;;
6580;SDS011;3324;50.796;7.228;2023-07-13T10:01:14;15.55;;;14.35;;
6580;SDS011;3324;50.796;7.228;2023-07-13T10:03:42;16.05;;;14.55;;
6580;SDS011;3324;50.796;7.228;2023-07-13T10:06:19;15.35;;;14.35;;
6580;SDS011;3324;50.796;7.228;2023-07-13T10:08:51;15.60;;;14.50;;
6580;SDS011;3324;50.796;7.228;2023-07-13T10:11:22;15.97;;;14.87;;
6580;SDS011;3324;50.796;7.228;2023-07-13T10:13:56;16.30;;;15.00;;
6580;SDS011;3324;50.796;7.228;2023-07-13T10:16:25;17.20;;;15.50;;
6580;SDS011;3324;50.796;7.228;2023-07-13T10:18:58;15.50;;;14.40;;
6580;SDS011;3324;50.796;7.228;2023-07-13T10:21:38;16.70;;;15.30;;
6580;SDS011;3324;50.796;7.228;2023-07-13T10:24:18;14.80;;;13.80;;
6580;SDS011;3324;50.796;7.228;2023-07-13T10:27:10;15.40;;;14.40;;
6580;SDS011;3324;50.796;7.228;2023-07-13T10:32:38;15.90;;;14.80;;
6580;SDS011;3324;50.796;7.228;2023-07-13T10:35:04;15.50;;;14.30;;
6580;SDS011;3324;50.796;7.228;2023-07-13T10:37:39;14.87;;;13.87;;
6580;SDS011;3324;50.796;7.228;2023-07-13T10:40:18;15.60;;;14.40;;
6580;SDS011;3324;50.796;7.228;2023-07-13T10:42:50;14.40;;;13.50;;
6580;SDS011;3324;50.796;7.228;2023-07-13T10:45:22;14.47;;;13.57;;
6580;SDS011;3324;50.796;7.228;2023-07-13T10:47:50;14.90;;;14.00;;
6580;SDS011;3324;50.796;7.228;2023-07-13T10:50:24;13.97;;;13.17;;
6580;SDS011;3324;50.796;7.228;2023-07-13T10:52:55;13.90;;;13.10;;
6580;SDS011;3324;50.796;7.228;2023-07-13T10:58:20;14.00;;;13.20;;
6580;SDS011;3324;50.796;7.228;2023-07-13T11:03:31;13.60;;;12.80;;
6580;SDS011;3324;50.796;7.228;2023-07-13T11:18:49;15.10;;;14.00;;
6580;SDS011;3324;50.796;7.228;2023-07-13T11:21:20;13.70;;;12.90;;
6580;SDS011;3324;50.796;7.228;2023-07-13T11:23:54;15.15;;;14.05;;
6580;SDS011;3324;50.796;7.228;2023-07-13T11:31:42;13.40;;;12.60;;
6580;SDS011;3324;50.796;7.228;2023-07-13T11:34:12;13.00;;;12.30;;
6580;SDS011;3324;50.796;7.228;2023-07-13T11:36:41;14.20;;;13.20;;
6580;SDS011;3324;50.796;7.228;2023-07-13T11:41:53;12.75;;;12.05;;
6580;SDS011;3324;50.796;7.228;2023-07-13T11:44:23;13.40;;;12.60;;
6580;SDS011;3324;50.796;7.228;2023-07-13T11:46:53;13.47;;;12.67;;
6580;SDS011;3324;50.796;7.228;2023-07-13T11:49:21;13.85;;;12.88;;
6580;SDS011;3324;50.796;7.228;2023-07-13T11:51:52;13.10;;;12.40;;
6580;SDS011;3324;50.796;7.228;2023-07-13T11:56:54;13.90;;;12.90;;
6580;SDS011;3324;50.796;7.228;2023-07-13T11:59:23;13.10;;;12.40;;
6580;SDS011;3324;50.796;7.228;2023-07-13T12:01:50;13.20;;;12.50;;
6580;SDS011;3324;50.796;7.228;2023-07-13T12:04:28;14.00;;;13.00;;
6580;SDS011;3324;50.796;7.228;2023-07-13T12:07:04;13.85;;;12.90;;
6580;SDS011;3324;50.796;7.228;2023-07-13T12:09:32;12.90;;;12.20;;
6580;SDS011;3324;50.796;7.228;2023-07-13T12:12:02;13.00;;;12.30;;
6580;SDS011;3324;50.796;7.228;2023-07-13T12:14:28;12.80;;;12.10;;
6580;SDS011;3324;50.796;7.228;2023-07-13T12:16:54;12.60;;;11.90;;
6580;SDS011;3324;50.796;7.228;2023-07-13T12:19:25;12.10;;;11.50;;
6580;SDS011;3324;50.796;7.228;2023-07-13T12:21:53;13.10;;;12.20;;
6580;SDS011;3324;50.796;7.228;2023-07-13T12:24:22;12.20;;;11.60;;
6580;SDS011;3324;50.796;7.228;2023-07-13T12:27:14;12.20;;;11.60;;
6580;SDS011;3324;50.796;7.228;2023-07-13T12:30:02;11.80;;;11.20;;
6580;SDS011;3324;50.796;7.228;2023-07-13T12:32:30;12.80;;;12.00;;
6580;SDS011;3324;50.796;7.228;2023-07-13T12:35:16;13.00;;;12.10;;
6580;SDS011;3324;50.796;7.228;2023-07-13T12:37:44;12.10;;;11.50;;
6580;SDS011;3324;50.796;7.228;2023-07-13T12:40:17;12.90;;;12.10;;
6580;SDS011;3324;50.796;7.228;2023-07-13T12:42:47;12.50;;;11.70;;
6580;SDS011;3324;50.796;7.228;2023-07-13T12:48:12;11.90;;;11.30;;
6580;SDS011;3324;50.796;7.228;2023-07-13T12:50:40;11.90;;;11.30;;
6580;SDS011;3324;50.796;7.228;2023-07-13T12:53:12;11.40;;;10.90;;
6580;SDS011;3324;50.796;7.228;2023-07-13T12:55:41;12.10;;;11.50;;
6580;SDS011;3324;50.796;7.228;2023-07-13T12:58:09;12.70;;;11.90;;
6580;SDS011;3324;50.796;7.228;2023-07-13T13:00:48;13.87;;;12.87;;
6580;SDS011;3324;50.796;7.228;2023-07-13T13:03:31;13.40;;;12.50;;
6580;SDS011;3324;50.796;7.228;2023-07-13T13:06:03;13.30;;;12.40;;
6580;SDS011;3324;50.796;7.228;2023-07-13T13:08:47;13.60;;;12.70;;
6580;SDS011;3324;50.796;7.228;2023-07-13T13:11:17;12.80;;;12.10;;
6580;SDS011;3324;50.796;7.228;2023-07-13T13:13:44;12.90;;;12.20;;
6580;SDS011;3324;50.796;7.228;2023-07-13T13:19:34;12.90;;;12.20;;
6580;SDS011;3324;50.796;7.228;2023-07-13T13:22:00;13.60;;;12.70;;
6580;SDS011;3324;50.796;7.228;2023-07-13T13:24:26;12.80;;;12.10;;
6580;SDS011;3324;50.796;7.228;2023-07-13T13:26:53;13.50;;;12.60;;
6580;SDS011;3324;50.796;7.228;2023-07-13T13:29:22;13.20;;;12.50;;
6580;SDS011;3324;50.796;7.228;2023-07-13T13:31:49;13.50;;;12.60;;
6580;SDS011;3324;50.796;7.228;2023-07-13T13:34:16;12.90;;;12.20;;
6580;SDS011;3324;50.796;7.228;2023-07-13T13:36:43;14.20;;;13.20;;
6580;SDS011;3324;50.796;7.228;2023-07-13T13:39:16;13.40;;;12.60;;
6580;SDS011;3324;50.796;7.228;2023-07-13T13:41:44;13.50;;;12.70;;
6580;SDS011;3324;50.796;7.228;2023-07-13T13:44:09;13.00;;;12.30;;
6580;SDS011;3324;50.796;7.228;2023-07-13T13:46:35;14.70;;;13.60;;
6580;SDS011;3324;50.796;7.228;2023-07-13T13:49:01;13.43;;;12.63;;
6580;SDS011;3324;50.796;7.228;2023-07-13T13:51:27;14.00;;;13.20;;
6580;SDS011;3324;50.796;7.228;2023-07-13T13:53:54;13.70;;;12.90;;
6580;SDS011;3324;50.796;7.228;2023-07-13T13:56:20;13.90;;;13.10;;
6580;SDS011;3324;50.796;7.228;2023-07-13T13:58:46;14.90;;;13.80;;
6580;SDS011;3324;50.796;7.228;2023-07-13T14:01:16;13.00;;;12.30;;
6580;SDS011;3324;50.796;7.228;2023-07-13T14:03:45;12.20;;;11.60;;
6580;SDS011;3324;50.796;7.228;2023-07-13T14:06:13;12.50;;;11.80;;
6580;SDS011;3324;50.796;7.228;2023-07-13T14:08:40;12.40;;;11.80;;
6580;SDS011;3324;50.796;7.228;2023-07-13T14:11:07;14.03;;;13.03;;
6580;SDS011;3324;50.796;7.228;2023-07-13T14:13:41;13.50;;;12.70;;
6580;SDS011;3324;50.796;7.228;2023-07-13T14:16:10;14.50;;;13.60;;
6580;SDS011;3324;50.796;7.228;2023-07-13T14:18:37;15.60;;;14.40;;
6580;SDS011;3324;50.796;7.228;2023-07-13T14:21:04;13.63;;;12.83;;
6580;SDS011;3324;50.796;7.228;2023-07-13T14:23:37;14.20;;;13.20;;
6580;SDS011;3324;50.796;7.228;2023-07-13T14:26:06;13.90;;;13.10;;
6580;SDS011;3324;50.796;7.228;2023-07-13T14:28:37;14.20;;;13.30;;
6580;SDS011;3324;50.796;7.228;2023-07-13T14:31:08;14.30;;;13.40;;
6580;SDS011;3324;50.796;7.228;2023-07-13T14:33:34;15.05;;;13.95;;
6580;SDS011;3324;50.796;7.228;2023-07-13T14:35:59;15.15;;;14.05;;
6580;SDS011;3324;50.796;7.228;2023-07-13T14:38:25;13.90;;;13.10;;
6580;SDS011;3324;50.796;7.228;2023-07-13T14:40:50;14.80;;;13.70;;
6580;SDS011;3324;50.796;7.228;2023-07-13T14:43:16;12.40;;;11.80;;
6580;SDS011;3324;50.796;7.228;2023-07-13T14:45:43;13.60;;;12.80;;
6580;SDS011;3324;50.796;7.228;2023-07-13T14:48:15;14.30;;;13.40;;
6580;SDS011;3324;50.796;7.228;2023-07-13T14:50:43;15.35;;;14.25;;
6580;SDS011;3324;50.796;7.228;2023-07-13T14:53:11;14.75;;;13.85;;
6580;SDS011;3324;50.796;7.228;2023-07-13T14:55:38;14.80;;;13.90;;
6580;SDS011;3324;50.796;7.228;2023-07-13T14:58:03;16.40;;;14.80;;
6580;SDS011;3324;50.796;7.228;2023-07-13T15:00:29;13.80;;;13.00;;
6580;SDS011;3324;50.796;7.228;2023-07-13T15:02:56;13.23;;;12.50;;
6580;SDS011;3324;50.796;7.228;2023-07-13T15:05:24;13.90;;;13.10;;
6580;SDS011;3324;50.796;7.228;2023-07-13T15:07:52;12.85;;;12.15;;
6580;SDS011;3324;50.796;7.228;2023-07-13T15:10:19;13.90;;;13.10;;
6580;SDS011;3324;50.796;7.228;2023-07-13T15:12:46;15.55;;;14.15;;
6580;SDS011;3324;50.796;7.228;2023-07-13T15:15:12;13.85;;;13.05;;
6580;SDS011;3324;50.796;7.228;2023-07-13T15:17:42;14.00;;;13.20;;
6580;SDS011;3324;50.796;7.228;2023-07-13T15:20:15;13.70;;;12.90;;
6580;SDS011;3324;50.796;7.228;2023-07-13T15:22:48;15.50;;;14.30;;
6580;SDS011;3324;50.796;7.228;2023-07-13T15:25:18;14.90;;;13.90;;
6580;SDS011;3324;50.796;7.228;2023-07-13T15:27:54;16.40;;;15.10;;
6580;SDS011;3324;50.796;7.228;2023-07-13T15:30:21;15.30;;;14.20;;
6580;SDS011;3324;50.796;7.228;2023-07-13T15:32:49;14.20;;;13.30;;
6580;SDS011;3324;50.796;7.228;2023-07-13T15:35:26;13.75;;;12.95;;
6580;SDS011;3324;50.796;7.228;2023-07-13T15:37:53;13.73;;;12.80;;
6580;SDS011;3324;50.796;7.228;2023-07-13T15:40:19;14.30;;;13.30;;
6580;SDS011;3324;50.796;7.228;2023-07-13T15:42:46;14.50;;;13.50;;
6580;SDS011;3324;50.796;7.228;2023-07-13T15:45:20;14.40;;;13.40;;
6580;SDS011;3324;50.796;7.228;2023-07-13T15:47:47;14.60;;;13.70;;
6580;SDS011;3324;50.796;7.228;2023-07-13T15:50:15;13.50;;;12.70;;
6580;SDS011;3324;50.796;7.228;2023-07-13T15:52:48;13.30;;;12.60;;
6580;SDS011;3324;50.796;7.228;2023-07-13T15:55:19;13.60;;;12.80;;
6580;SDS011;3324;50.796;7.228;2023-07-13T15:57:46;14.30;;;13.30;;